sensor_id;sensor_type;location;lat;lon;timestamp;temperature;humidity
21495;DHT22;10909;53.590;10.054;2023-02-28T00:01:31;8.50;61.70
21495;DHT22;10909;53.590;10.054;2023-02-28T00:04:01;8.50;61.80
21495;DHT22;10909;53.590;10.054;2023-02-28T00:06:31;8.50;61.90
21495;DHT22;10909;53.590;10.054;2023-02-28T00:08:58;8.40;62.00
21495;DHT22;10909;53.590;10.054;2023-02-28T00:11:25;8.40;61.90
21495;DHT22;10909;53.590;10.054;2023-02-28T00:13:53;8.40;62.00
21495;DHT22;10909;53.590;10.054;2023-02-28T00:16:22;8.30;62.00
21495;DHT22;10909;53.590;10.054;2023-02-28T00:21:19;8.30;62.10
21495;DHT22;10909;53.590;10.054;2023-02-28T00:23:47;8.20;62.30
21495;DHT22;10909;53.590;10.054;2023-02-28T00:26:13;8.20;62.30
21495;DHT22;10909;53.590;10.054;2023-02-28T00:28:41;8.10;62.50
21495;DHT22;10909;53.590;10.054;2023-02-28T00:31:08;8.10;62.50
21495;DHT22;10909;53.590;10.054;2023-02-28T00:33:36;8.10;62.70
21495;DHT22;10909;53.590;10.054;2023-02-28T00:36:09;8.00;62.70
21495;DHT22;10909;53.590;10.054;2023-02-28T00:38:38;8.00;62.80
21495;DHT22;10909;53.590;10.054;2023-02-28T00:41:13;8.00;63.00
21495;DHT22;10909;53.590;10.054;2023-02-28T00:46:09;8.00;63.10
21495;DHT22;10909;53.590;10.054;2023-02-28T00:48:38;8.00;63.20
21495;DHT22;10909;53.590;10.054;2023-02-28T00:51:07;8.00;63.20
21495;DHT22;10909;53.590;10.054;2023-02-28T00:53:38;8.00;63.20
21495;DHT22;10909;53.590;10.054;2023-02-28T00:56:04;8.00;63.10
21495;DHT22;10909;53.590;10.054;2023-02-28T00:58:35;8.00;63.20
21495;DHT22;10909;53.590;10.054;2023-02-28T01:01:07;8.00;63.10
21495;DHT22;10909;53.590;10.054;2023-02-28T01:06:03;7.90;63.10
21495;DHT22;10909;53.590;10.054;2023-02-28T01:08:30;7.90;63.00
21495;DHT22;10909;53.590;10.054;2023-02-28T01:13:25;7.90;63.20
21495;DHT22;10909;53.590;10.054;2023-02-28T01:15:55;7.90;63.20
21495;DHT22;10909;53.590;10.054;2023-02-28T01:18:23;7.90;63.10
21495;DHT22;10909;53.590;10.054;2023-02-28T01:20:51;7.90;63.10
21495;DHT22;10909;53.590;10.054;2023-02-28T01:23:19;7.80;63.20
21495;DHT22;10909;53.590;10.054;2023-02-28T01:25:47;7.90;63.30
21495;DHT22;10909;53.590;10.054;2023-02-28T01:28:15;7.80;63.20
21495;DHT22;10909;53.590;10.054;2023-02-28T01:30:50;7.80;63.40
21495;DHT22;10909;53.590;10.054;2023-02-28T01:33:20;7.80;63.40
21495;DHT22;10909;53.590;10.054;2023-02-28T01:35:57;7.80;63.40
21495;DHT22;10909;53.590;10.054;2023-02-28T01:38:24;7.80;63.60
21495;DHT22;10909;53.590;10.054;2023-02-28T01:40:56;7.80;63.60
21495;DHT22;10909;53.590;10.054;2023-02-28T01:43:29;7.80;63.70
21495;DHT22;10909;53.590;10.054;2023-02-28T01:45:59;7.80;63.80
21495;DHT22;10909;53.590;10.054;2023-02-28T01:48:29;7.80;63.90
21495;DHT22;10909;53.590;10.054;2023-02-28T01:51:01;7.80;63.90
21495;DHT22;10909;53.590;10.054;2023-02-28T01:53:43;7.80;64.00
21495;DHT22;10909;53.590;10.054;2023-02-28T01:56:26;7.80;63.90
21495;DHT22;10909;53.590;10.054;2023-02-28T01:58:58;7.90;64.20
21495;DHT22;10909;53.590;10.054;2023-02-28T02:01:27;7.70;64.10
21495;DHT22;10909;53.590;10.054;2023-02-28T02:04:01;7.80;64.10
21495;DHT22;10909;53.590;10.054;2023-02-28T02:09:18;7.80;63.80
21495;DHT22;10909;53.590;10.054;2023-02-28T02:11:46;7.70;64.00
21495;DHT22;10909;53.590;10.054;2023-02-28T02:17:56;7.70;63.40
21495;DHT22;10909;53.590;10.054;2023-02-28T02:38:09;7.50;63.90
21495;DHT22;10909;53.590;10.054;2023-02-28T02:40:59;7.40;63.60
21495;DHT22;10909;53.590;10.054;2023-02-28T02:46:32;7.30;63.90
21495;DHT22;10909;53.590;10.054;2023-02-28T02:49:08;7.30;63.80
21495;DHT22;10909;53.590;10.054;2023-02-28T02:51:35;7.30;63.70
21495;DHT22;10909;53.590;10.054;2023-02-28T02:54:13;7.20;63.90
21495;DHT22;10909;53.590;10.054;2023-02-28T02:56:44;7.20;63.90
21495;DHT22;10909;53.590;10.054;2023-02-28T02:59:14;7.10;63.90
21495;DHT22;10909;53.590;10.054;2023-02-28T03:01:45;7.10;63.90
21495;DHT22;10909;53.590;10.054;2023-02-28T03:04:17;7.00;63.90
21495;DHT22;10909;53.590;10.054;2023-02-28T03:09:16;6.90;63.90
21495;DHT22;10909;53.590;10.054;2023-02-28T03:11:45;6.80;63.90
21495;DHT22;10909;53.590;10.054;2023-02-28T03:14:25;6.80;64.00
21495;DHT22;10909;53.590;10.054;2023-02-28T03:25:23;6.50;63.90
21495;DHT22;10909;53.590;10.054;2023-02-28T03:30:54;6.40;64.30
21495;DHT22;10909;53.590;10.054;2023-02-28T03:33:38;6.50;64.70
21495;DHT22;10909;53.590;10.054;2023-02-28T03:36:30;6.40;64.70
21495;DHT22;10909;53.590;10.054;2023-02-28T03:39:06;6.30;64.70
21495;DHT22;10909;53.590;10.054;2023-02-28T03:41:49;6.30;64.70
21495;DHT22;10909;53.590;10.054;2023-02-28T03:44:56;6.30;64.70
21495;DHT22;10909;53.590;10.054;2023-02-28T03:52:44;6.10;64.90
21495;DHT22;10909;53.590;10.054;2023-02-28T03:55:16;6.00;65.00
21495;DHT22;10909;53.590;10.054;2023-02-28T03:58:01;6.00;65.10
21495;DHT22;10909;53.590;10.054;2023-02-28T04:00:34;6.00;65.20
21495;DHT22;10909;53.590;10.054;2023-02-28T04:03:04;6.00;65.20
21495;DHT22;10909;53.590;10.054;2023-02-28T04:05:46;5.90;65.30
21495;DHT22;10909;53.590;10.054;2023-02-28T04:08:15;5.90;65.30
21495;DHT22;10909;53.590;10.054;2023-02-28T04:10:44;5.80;65.40
21495;DHT22;10909;53.590;10.054;2023-02-28T04:13:13;5.80;65.50
21495;DHT22;10909;53.590;10.054;2023-02-28T04:15:44;5.80;65.50
21495;DHT22;10909;53.590;10.054;2023-02-28T04:18:14;5.80;65.50
21495;DHT22;10909;53.590;10.054;2023-02-28T04:20:50;5.70;65.50
21495;DHT22;10909;53.590;10.054;2023-02-28T04:23:22;5.70;65.70
21495;DHT22;10909;53.590;10.054;2023-02-28T04:28:20;5.60;65.80
21495;DHT22;10909;53.590;10.054;2023-02-28T04:33:17;5.50;66.00
21495;DHT22;10909;53.590;10.054;2023-02-28T04:35:47;5.40;66.00
21495;DHT22;10909;53.590;10.054;2023-02-28T04:38:18;5.40;66.10
21495;DHT22;10909;53.590;10.054;2023-02-28T04:40:46;5.40;66.10
21495;DHT22;10909;53.590;10.054;2023-02-28T04:43:16;5.40;66.30
21495;DHT22;10909;53.590;10.054;2023-02-28T04:45:48;5.40;66.30
21495;DHT22;10909;53.590;10.054;2023-02-28T04:48:15;5.40;66.40
21495;DHT22;10909;53.590;10.054;2023-02-28T04:50:46;5.30;66.40
21495;DHT22;10909;53.590;10.054;2023-02-28T04:53:17;5.30;66.40
21495;DHT22;10909;53.590;10.054;2023-02-28T04:55:47;5.30;66.60
21495;DHT22;10909;53.590;10.054;2023-02-28T05:00:42;5.20;66.70
21495;DHT22;10909;53.590;10.054;2023-02-28T05:05:46;5.20;66.80
21495;DHT22;10909;53.590;10.054;2023-02-28T05:10:48;5.10;66.90
21495;DHT22;10909;53.590;10.054;2023-02-28T05:15:49;5.10;67.00
21495;DHT22;10909;53.590;10.054;2023-02-28T05:21:26;5.00;67.00
21495;DHT22;10909;53.590;10.054;2023-02-28T05:23:58;5.00;67.10
21495;DHT22;10909;53.590;10.054;2023-02-28T05:28:54;4.90;67.00
21495;DHT22;10909;53.590;10.054;2023-02-28T05:31:22;4.90;67.20
21495;DHT22;10909;53.590;10.054;2023-02-28T05:34:04;4.90;67.30
21495;DHT22;10909;53.590;10.054;2023-02-28T05:36:37;4.80;67.30
21495;DHT22;10909;53.590;10.054;2023-02-28T05:39:07;4.80;67.40
21495;DHT22;10909;53.590;10.054;2023-02-28T05:41:39;4.80;67.50
21495;DHT22;10909;53.590;10.054;2023-02-28T05:44:06;4.70;67.50
21495;DHT22;10909;53.590;10.054;2023-02-28T05:46:33;4.70;67.60
21495;DHT22;10909;53.590;10.054;2023-02-28T05:49:05;4.70;67.70
21495;DHT22;10909;53.590;10.054;2023-02-28T05:51:35;4.70;67.80
21495;DHT22;10909;53.590;10.054;2023-02-28T05:54:05;4.60;67.80
21495;DHT22;10909;53.590;10.054;2023-02-28T05:56:43;4.60;67.90
21495;DHT22;10909;53.590;10.054;2023-02-28T05:59:13;4.60;68.00
21495;DHT22;10909;53.590;10.054;2023-02-28T06:01:42;4.60;68.00
21495;DHT22;10909;53.590;10.054;2023-02-28T06:04:15;4.60;68.10
21495;DHT22;10909;53.590;10.054;2023-02-28T06:09:17;4.60;68.20
21495;DHT22;10909;53.590;10.054;2023-02-28T06:11:50;4.60;68.30
21495;DHT22;10909;53.590;10.054;2023-02-28T06:14:20;4.50;68.30
21495;DHT22;10909;53.590;10.054;2023-02-28T06:16:48;4.50;68.50
21495;DHT22;10909;53.590;10.054;2023-02-28T06:19:19;4.50;68.50
21495;DHT22;10909;53.590;10.054;2023-02-28T06:21:49;4.50;68.60
21495;DHT22;10909;53.590;10.054;2023-02-28T06:26:57;4.50;68.70
21495;DHT22;10909;53.590;10.054;2023-02-28T06:32:00;4.50;68.70
21495;DHT22;10909;53.590;10.054;2023-02-28T06:34:28;4.40;68.70
21495;DHT22;10909;53.590;10.054;2023-02-28T06:37:04;4.40;68.80
21495;DHT22;10909;53.590;10.054;2023-02-28T06:39:46;4.40;68.90
21495;DHT22;10909;53.590;10.054;2023-02-28T06:44:46;4.40;69.10
21495;DHT22;10909;53.590;10.054;2023-02-28T06:49:52;4.40;69.30
21495;DHT22;10909;53.590;10.054;2023-02-28T06:52:20;4.40;69.30
21495;DHT22;10909;53.590;10.054;2023-02-28T06:57:24;4.40;69.50
21495;DHT22;10909;53.590;10.054;2023-02-28T07:02:25;4.40;69.60
21495;DHT22;10909;53.590;10.054;2023-02-28T07:04:52;4.50;69.70
21495;DHT22;10909;53.590;10.054;2023-02-28T07:07:31;4.40;69.70
21495;DHT22;10909;53.590;10.054;2023-02-28T07:12:29;4.50;69.90
21495;DHT22;10909;53.590;10.054;2023-02-28T07:14:57;4.40;70.00
21495;DHT22;10909;53.590;10.054;2023-02-28T07:17:28;4.50;70.00
21495;DHT22;10909;53.590;10.054;2023-02-28T07:22:26;4.50;70.10
21495;DHT22;10909;53.590;10.054;2023-02-28T07:27:23;4.50;70.20
21495;DHT22;10909;53.590;10.054;2023-02-28T07:29:52;4.60;70.40
21495;DHT22;10909;53.590;10.054;2023-02-28T07:34:50;4.60;70.50
21495;DHT22;10909;53.590;10.054;2023-02-28T07:37:18;4.70;70.60
21495;DHT22;10909;53.590;10.054;2023-02-28T07:39:45;4.70;70.60
21495;DHT22;10909;53.590;10.054;2023-02-28T07:42:14;4.70;70.60
21495;DHT22;10909;53.590;10.054;2023-02-28T07:44:43;4.80;70.70
21495;DHT22;10909;53.590;10.054;2023-02-28T07:47:14;4.80;70.70
21495;DHT22;10909;53.590;10.054;2023-02-28T07:52:25;4.90;70.80
21495;DHT22;10909;53.590;10.054;2023-02-28T07:54:53;5.00;70.90
21495;DHT22;10909;53.590;10.054;2023-02-28T07:57:24;5.00;71.00
21495;DHT22;10909;53.590;10.054;2023-02-28T07:59:51;5.00;71.00
21495;DHT22;10909;53.590;10.054;2023-02-28T08:02:19;5.10;71.00
21495;DHT22;10909;53.590;10.054;2023-02-28T08:04:49;5.10;71.00
21495;DHT22;10909;53.590;10.054;2023-02-28T08:07:20;5.20;71.10
21495;DHT22;10909;53.590;10.054;2023-02-28T08:09:48;5.20;71.10
21495;DHT22;10909;53.590;10.054;2023-02-28T08:12:21;5.30;71.10
21495;DHT22;10909;53.590;10.054;2023-02-28T08:14:49;5.30;71.20
21495;DHT22;10909;53.590;10.054;2023-02-28T08:17:21;5.40;71.40
21495;DHT22;10909;53.590;10.054;2023-02-28T08:22:20;5.60;71.80
21495;DHT22;10909;53.590;10.054;2023-02-28T08:24:49;5.70;71.70
21495;DHT22;10909;53.590;10.054;2023-02-28T08:27:22;5.80;71.60
21495;DHT22;10909;53.590;10.054;2023-02-28T08:29:50;5.90;71.40
21495;DHT22;10909;53.590;10.054;2023-02-28T08:32:18;6.00;71.20
21495;DHT22;10909;53.590;10.054;2023-02-28T08:34:49;6.10;71.20
21495;DHT22;10909;53.590;10.054;2023-02-28T08:37:16;6.10;71.00
21495;DHT22;10909;53.590;10.054;2023-02-28T08:39:48;6.20;70.90
21495;DHT22;10909;53.590;10.054;2023-02-28T08:42:27;6.20;70.80
21495;DHT22;10909;53.590;10.054;2023-02-28T08:45:03;6.30;70.80
21495;DHT22;10909;53.590;10.054;2023-02-28T08:47:34;6.30;70.80
21495;DHT22;10909;53.590;10.054;2023-02-28T08:50:18;6.30;70.70
21495;DHT22;10909;53.590;10.054;2023-02-28T08:52:49;6.40;70.70
21495;DHT22;10909;53.590;10.054;2023-02-28T08:55:18;6.40;70.70
21495;DHT22;10909;53.590;10.054;2023-02-28T08:57:49;6.50;70.70
21495;DHT22;10909;53.590;10.054;2023-02-28T09:00:22;6.50;70.60
21495;DHT22;10909;53.590;10.054;2023-02-28T09:02:52;6.60;70.70
21495;DHT22;10909;53.590;10.054;2023-02-28T09:05:23;6.60;70.80
21495;DHT22;10909;53.590;10.054;2023-02-28T09:10:26;6.80;70.60
21495;DHT22;10909;53.590;10.054;2023-02-28T09:12:58;6.90;70.60
21495;DHT22;10909;53.590;10.054;2023-02-28T09:15:29;6.90;70.20
21495;DHT22;10909;53.590;10.054;2023-02-28T09:17:58;7.00;69.90
21495;DHT22;10909;53.590;10.054;2023-02-28T09:20:30;7.10;69.80
21495;DHT22;10909;53.590;10.054;2023-02-28T09:22:57;7.00;69.30
21495;DHT22;10909;53.590;10.054;2023-02-28T09:25:26;7.20;69.40
21495;DHT22;10909;53.590;10.054;2023-02-28T09:27:54;7.20;69.10
21495;DHT22;10909;53.590;10.054;2023-02-28T09:30:27;7.30;68.80
21495;DHT22;10909;53.590;10.054;2023-02-28T09:32:55;7.30;68.50
21495;DHT22;10909;53.590;10.054;2023-02-28T09:35:25;7.40;68.30
21495;DHT22;10909;53.590;10.054;2023-02-28T09:37:55;7.50;68.20
21495;DHT22;10909;53.590;10.054;2023-02-28T09:40:29;7.50;68.00
21495;DHT22;10909;53.590;10.054;2023-02-28T09:42:59;7.50;67.40
21495;DHT22;10909;53.590;10.054;2023-02-28T09:45:36;7.60;67.50
21495;DHT22;10909;53.590;10.054;2023-02-28T09:48:33;7.60;67.60
21495;DHT22;10909;53.590;10.054;2023-02-28T09:51:28;7.70;67.10
21495;DHT22;10909;53.590;10.054;2023-02-28T09:54:01;7.70;66.60
21495;DHT22;10909;53.590;10.054;2023-02-28T09:56:39;7.80;67.10
21495;DHT22;10909;53.590;10.054;2023-02-28T09:59:48;7.90;66.70
21495;DHT22;10909;53.590;10.054;2023-02-28T10:02:41;7.90;66.80
21495;DHT22;10909;53.590;10.054;2023-02-28T10:05:16;8.00;66.70
21495;DHT22;10909;53.590;10.054;2023-02-28T10:08:13;8.00;67.00
21495;DHT22;10909;53.590;10.054;2023-02-28T10:10:47;8.10;66.30
21495;DHT22;10909;53.590;10.054;2023-02-28T10:19:39;8.30;66.00
21495;DHT22;10909;53.590;10.054;2023-02-28T10:22:18;8.30;66.30
21495;DHT22;10909;53.590;10.054;2023-02-28T10:24:55;8.40;66.00
21495;DHT22;10909;53.590;10.054;2023-02-28T10:27:31;8.40;66.20
21495;DHT22;10909;53.590;10.054;2023-02-28T10:30:03;8.40;66.10
21495;DHT22;10909;53.590;10.054;2023-02-28T10:32:34;8.50;65.70
21495;DHT22;10909;53.590;10.054;2023-02-28T10:35:30;8.50;64.80
21495;DHT22;10909;53.590;10.054;2023-02-28T10:38:03;8.60;63.50
21495;DHT22;10909;53.590;10.054;2023-02-28T10:40:37;8.60;64.50
21495;DHT22;10909;53.590;10.054;2023-02-28T10:46:11;8.70;65.10
21495;DHT22;10909;53.590;10.054;2023-02-28T10:49:00;8.70;64.50
21495;DHT22;10909;53.590;10.054;2023-02-28T10:51:37;8.70;63.90
21495;DHT22;10909;53.590;10.054;2023-02-28T10:54:16;8.80;63.80
21495;DHT22;10909;53.590;10.054;2023-02-28T10:57:14;8.80;64.10
21495;DHT22;10909;53.590;10.054;2023-02-28T10:59:43;8.90;63.50
21495;DHT22;10909;53.590;10.054;2023-02-28T11:02:33;8.90;64.00
21495;DHT22;10909;53.590;10.054;2023-02-28T11:05:01;8.90;63.50
21495;DHT22;10909;53.590;10.054;2023-02-28T11:07:34;8.90;63.80
21495;DHT22;10909;53.590;10.054;2023-02-28T11:10:05;8.90;64.00
21495;DHT22;10909;53.590;10.054;2023-02-28T11:12:38;8.90;63.60
21495;DHT22;10909;53.590;10.054;2023-02-28T11:15:28;9.00;63.40
21495;DHT22;10909;53.590;10.054;2023-02-28T11:20:34;9.10;63.20
21495;DHT22;10909;53.590;10.054;2023-02-28T11:23:12;9.10;63.50
21495;DHT22;10909;53.590;10.054;2023-02-28T11:25:50;9.20;63.30
21495;DHT22;10909;53.590;10.054;2023-02-28T11:28:41;9.30;63.00
21495;DHT22;10909;53.590;10.054;2023-02-28T11:31:18;9.30;62.10
21495;DHT22;10909;53.590;10.054;2023-02-28T11:33:50;9.40;62.80
21495;DHT22;10909;53.590;10.054;2023-02-28T11:36:31;9.40;62.80
21495;DHT22;10909;53.590;10.054;2023-02-28T11:39:10;9.40;62.30
21495;DHT22;10909;53.590;10.054;2023-02-28T12:15:38;10.10;61.00
21495;DHT22;10909;53.590;10.054;2023-02-28T12:24:25;10.20;60.00
21495;DHT22;10909;53.590;10.054;2023-02-28T12:26:55;10.30;60.30
21495;DHT22;10909;53.590;10.054;2023-02-28T12:29:33;10.30;60.10
21495;DHT22;10909;53.590;10.054;2023-02-28T12:32:23;10.30;60.50
21495;DHT22;10909;53.590;10.054;2023-02-28T12:37:53;10.30;59.80
21495;DHT22;10909;53.590;10.054;2023-02-28T12:40:26;10.40;59.50
21495;DHT22;10909;53.590;10.054;2023-02-28T12:43:04;10.40;59.50
21495;DHT22;10909;53.590;10.054;2023-02-28T12:45:48;10.40;59.10
21495;DHT22;10909;53.590;10.054;2023-02-28T12:48:51;10.50;59.70
21495;DHT22;10909;53.590;10.054;2023-02-28T12:51:28;10.40;58.00
21495;DHT22;10909;53.590;10.054;2023-02-28T12:57:01;10.60;59.30
21495;DHT22;10909;53.590;10.054;2023-02-28T13:02:18;10.80;59.80
21495;DHT22;10909;53.590;10.054;2023-02-28T13:13:17;11.30;63.50
21495;DHT22;10909;53.590;10.054;2023-02-28T13:16:07;11.80;65.30
21495;DHT22;10909;53.590;10.054;2023-02-28T13:18:46;12.50;63.70
21495;DHT22;10909;53.590;10.054;2023-02-28T13:21:43;13.20;66.70
21495;DHT22;10909;53.590;10.054;2023-02-28T13:29:41;15.40;64.90
21495;DHT22;10909;53.590;10.054;2023-02-28T13:37:36;17.10;63.30
21495;DHT22;10909;53.590;10.054;2023-02-28T13:40:30;17.50;62.60
21495;DHT22;10909;53.590;10.054;2023-02-28T13:43:02;18.00;57.80
21495;DHT22;10909;53.590;10.054;2023-02-28T13:48:25;18.60;59.90
21495;DHT22;10909;53.590;10.054;2023-02-28T13:54:01;19.40;55.70
21495;DHT22;10909;53.590;10.054;2023-02-28T13:59:50;20.10;52.00
21495;DHT22;10909;53.590;10.054;2023-02-28T14:05:21;20.60;50.90
21495;DHT22;10909;53.590;10.054;2023-02-28T14:07:57;20.90;55.80
21495;DHT22;10909;53.590;10.054;2023-02-28T14:13:36;21.40;49.90
21495;DHT22;10909;53.590;10.054;2023-02-28T14:16:03;21.60;50.70
21495;DHT22;10909;53.590;10.054;2023-02-28T14:21:14;21.80;51.40
21495;DHT22;10909;53.590;10.054;2023-02-28T14:24:03;21.90;48.80
21495;DHT22;10909;53.590;10.054;2023-02-28T14:26:46;22.10;50.50
21495;DHT22;10909;53.590;10.054;2023-02-28T14:32:32;22.60;48.10
21495;DHT22;10909;53.590;10.054;2023-02-28T14:37:33;23.00;48.70
21495;DHT22;10909;53.590;10.054;2023-02-28T14:40:00;23.20;47.50
21495;DHT22;10909;53.590;10.054;2023-02-28T14:42:33;23.40;48.70
21495;DHT22;10909;53.590;10.054;2023-02-28T14:45:00;23.60;47.40
21495;DHT22;10909;53.590;10.054;2023-02-28T14:47:43;23.90;48.30
21495;DHT22;10909;53.590;10.054;2023-02-28T14:50:24;24.10;46.80
21495;DHT22;10909;53.590;10.054;2023-02-28T14:52:54;24.30;44.20
21495;DHT22;10909;53.590;10.054;2023-02-28T14:55:45;24.30;44.50
21495;DHT22;10909;53.590;10.054;2023-02-28T14:58:28;24.40;43.90
21495;DHT22;10909;53.590;10.054;2023-02-28T15:01:01;24.40;41.50
21495;DHT22;10909;53.590;10.054;2023-02-28T15:06:20;24.50;43.30
21495;DHT22;10909;53.590;10.054;2023-02-28T15:08:48;24.60;39.70
21495;DHT22;10909;53.590;10.054;2023-02-28T15:11:37;24.70;42.70
21495;DHT22;10909;53.590;10.054;2023-02-28T15:14:04;24.70;42.20
21495;DHT22;10909;53.590;10.054;2023-02-28T15:16:35;24.70;42.10
21495;DHT22;10909;53.590;10.054;2023-02-28T15:19:27;24.80;41.10
21495;DHT22;10909;53.590;10.054;2023-02-28T15:22:01;24.90;38.10
21495;DHT22;10909;53.590;10.054;2023-02-28T15:24:39;24.90;40.30
21495;DHT22;10909;53.590;10.054;2023-02-28T15:27:15;24.90;40.70
21495;DHT22;10909;53.590;10.054;2023-02-28T15:29:48;24.90;40.30
21495;DHT22;10909;53.590;10.054;2023-02-28T15:32:36;24.80;40.70
21495;DHT22;10909;53.590;10.054;2023-02-28T15:35:40;24.70;38.50
21495;DHT22;10909;53.590;10.054;2023-02-28T15:38:26;24.70;38.00
21495;DHT22;10909;53.590;10.054;2023-02-28T15:40:57;24.70;38.90
21495;DHT22;10909;53.590;10.054;2023-02-28T15:46:00;24.10;38.90
21495;DHT22;10909;53.590;10.054;2023-02-28T15:48:33;23.60;38.40
21495;DHT22;10909;53.590;10.054;2023-02-28T15:51:18;23.10;38.30
21495;DHT22;10909;53.590;10.054;2023-02-28T15:53:58;22.50;37.50
21495;DHT22;10909;53.590;10.054;2023-02-28T15:56:37;21.80;37.40
21495;DHT22;10909;53.590;10.054;2023-02-28T15:59:07;21.20;38.80
21495;DHT22;10909;53.590;10.054;2023-02-28T16:01:39;20.60;39.80
21495;DHT22;10909;53.590;10.054;2023-02-28T16:06:42;19.70;39.90
21495;DHT22;10909;53.590;10.054;2023-02-28T16:09:13;19.20;40.40
21495;DHT22;10909;53.590;10.054;2023-02-28T16:11:48;18.80;40.80
21495;DHT22;10909;53.590;10.054;2023-02-28T16:14:20;18.40;40.10
21495;DHT22;10909;53.590;10.054;2023-02-28T16:16:50;18.10;41.10
21495;DHT22;10909;53.590;10.054;2023-02-28T16:19:17;17.70;40.90
21495;DHT22;10909;53.590;10.054;2023-02-28T16:24:13;17.10;41.90
21495;DHT22;10909;53.590;10.054;2023-02-28T16:26:41;16.80;42.60
21495;DHT22;10909;53.590;10.054;2023-02-28T16:29:11;16.50;42.90
21495;DHT22;10909;53.590;10.054;2023-02-28T16:31:39;16.30;43.00
21495;DHT22;10909;53.590;10.054;2023-02-28T16:36:36;15.90;42.90
21495;DHT22;10909;53.590;10.054;2023-02-28T16:39:02;15.80;43.30
21495;DHT22;10909;53.590;10.054;2023-02-28T16:41:32;15.60;43.90
21495;DHT22;10909;53.590;10.054;2023-02-28T16:43:59;15.40;43.90
21495;DHT22;10909;53.590;10.054;2023-02-28T16:46:36;15.20;44.20
21495;DHT22;10909;53.590;10.054;2023-02-28T16:49:03;15.10;44.70
21495;DHT22;10909;53.590;10.054;2023-02-28T16:51:29;15.00;44.70
21495;DHT22;10909;53.590;10.054;2023-02-28T16:53:56;14.90;44.80
21495;DHT22;10909;53.590;10.054;2023-02-28T16:56:24;14.80;44.60
21495;DHT22;10909;53.590;10.054;2023-02-28T16:58:55;14.60;44.90
21495;DHT22;10909;53.590;10.054;2023-02-28T17:01:25;14.50;44.90
21495;DHT22;10909;53.590;10.054;2023-02-28T17:03:53;14.40;45.40
21495;DHT22;10909;53.590;10.054;2023-02-28T17:06:27;14.20;45.60
21495;DHT22;10909;53.590;10.054;2023-02-28T17:08:54;14.10;45.50
21495;DHT22;10909;53.590;10.054;2023-02-28T17:11:21;14.00;45.60
21495;DHT22;10909;53.590;10.054;2023-02-28T17:13:58;13.90;46.70
21495;DHT22;10909;53.590;10.054;2023-02-28T17:16:28;13.80;46.20
21495;DHT22;10909;53.590;10.054;2023-02-28T17:19:03;13.70;46.20
21495;DHT22;10909;53.590;10.054;2023-02-28T17:21:31;13.60;46.20
21495;DHT22;10909;53.590;10.054;2023-02-28T17:24:08;13.60;46.60
21495;DHT22;10909;53.590;10.054;2023-02-28T17:26:34;13.50;46.80
21495;DHT22;10909;53.590;10.054;2023-02-28T17:29:02;13.40;47.10
21495;DHT22;10909;53.590;10.054;2023-02-28T17:31:31;13.30;47.20
21495;DHT22;10909;53.590;10.054;2023-02-28T17:36:26;13.20;47.40
21495;DHT22;10909;53.590;10.054;2023-02-28T17:38:54;13.10;47.50
21495;DHT22;10909;53.590;10.054;2023-02-28T17:41:23;13.00;47.60
21495;DHT22;10909;53.590;10.054;2023-02-28T17:43:52;12.90;47.70
21495;DHT22;10909;53.590;10.054;2023-02-28T17:46:21;12.90;47.80
21495;DHT22;10909;53.590;10.054;2023-02-28T17:48:52;12.80;47.80
21495;DHT22;10909;53.590;10.054;2023-02-28T17:51:23;12.70;47.80
21495;DHT22;10909;53.590;10.054;2023-02-28T17:56:22;12.50;48.00
21495;DHT22;10909;53.590;10.054;2023-02-28T17:58:49;12.40;48.10
21495;DHT22;10909;53.590;10.054;2023-02-28T18:01:16;12.30;48.30
21495;DHT22;10909;53.590;10.054;2023-02-28T18:08:56;12.10;48.00
21495;DHT22;10909;53.590;10.054;2023-02-28T18:11:23;12.00;48.80
21495;DHT22;10909;53.590;10.054;2023-02-28T18:13:52;12.00;48.90
21495;DHT22;10909;53.590;10.054;2023-02-28T18:16:19;11.90;48.90
21495;DHT22;10909;53.590;10.054;2023-02-28T18:18:46;11.80;49.20
21495;DHT22;10909;53.590;10.054;2023-02-28T18:21:14;11.80;49.40
21495;DHT22;10909;53.590;10.054;2023-02-28T18:23:45;11.70;50.10
21495;DHT22;10909;53.590;10.054;2023-02-28T18:26:15;11.70;49.70
21495;DHT22;10909;53.590;10.054;2023-02-28T18:28:42;11.70;49.80
21495;DHT22;10909;53.590;10.054;2023-02-28T18:31:14;11.60;49.80
21495;DHT22;10909;53.590;10.054;2023-02-28T18:33:41;11.60;49.90
21495;DHT22;10909;53.590;10.054;2023-02-28T18:36:09;11.50;49.80
21495;DHT22;10909;53.590;10.054;2023-02-28T18:38:35;11.50;50.00
21495;DHT22;10909;53.590;10.054;2023-02-28T18:41:12;11.40;50.00
21495;DHT22;10909;53.590;10.054;2023-02-28T18:43:42;11.40;50.10
21495;DHT22;10909;53.590;10.054;2023-02-28T18:46:15;11.30;50.20
21495;DHT22;10909;53.590;10.054;2023-02-28T18:48:44;11.30;50.20
21495;DHT22;10909;53.590;10.054;2023-02-28T18:51:18;11.20;50.30
21495;DHT22;10909;53.590;10.054;2023-02-28T18:53:45;11.20;50.30
21495;DHT22;10909;53.590;10.054;2023-02-28T18:56:24;11.10;50.40
21495;DHT22;10909;53.590;10.054;2023-02-28T18:58:52;11.10;50.60
21495;DHT22;10909;53.590;10.054;2023-02-28T19:01:28;11.00;50.60
21495;DHT22;10909;53.590;10.054;2023-02-28T19:03:59;11.00;50.40
21495;DHT22;10909;53.590;10.054;2023-02-28T19:06:27;10.90;50.80
21495;DHT22;10909;53.590;10.054;2023-02-28T19:08:59;10.80;50.80
21495;DHT22;10909;53.590;10.054;2023-02-28T19:14:00;10.80;51.10
21495;DHT22;10909;53.590;10.054;2023-02-28T19:16:27;10.70;51.30
21495;DHT22;10909;53.590;10.054;2023-02-28T19:18:54;10.70;51.20
21495;DHT22;10909;53.590;10.054;2023-02-28T19:21:22;10.60;51.30
21495;DHT22;10909;53.590;10.054;2023-02-28T19:23:49;10.60;51.40
21495;DHT22;10909;53.590;10.054;2023-02-28T19:26:27;10.50;51.50
21495;DHT22;10909;53.590;10.054;2023-02-28T19:28:54;10.40;51.50
21495;DHT22;10909;53.590;10.054;2023-02-28T19:31:24;10.40;51.60
21495;DHT22;10909;53.590;10.054;2023-02-28T19:33:52;10.40;51.60
21495;DHT22;10909;53.590;10.054;2023-02-28T19:36:24;10.30;51.70
21495;DHT22;10909;53.590;10.054;2023-02-28T19:38:51;10.30;51.90
21495;DHT22;10909;53.590;10.054;2023-02-28T19:41:18;10.20;52.00
21495;DHT22;10909;53.590;10.054;2023-02-28T19:43:45;10.20;52.10
21495;DHT22;10909;53.590;10.054;2023-02-28T19:46:15;10.10;52.20
21495;DHT22;10909;53.590;10.054;2023-02-28T19:48:44;10.10;52.30
21495;DHT22;10909;53.590;10.054;2023-02-28T19:51:14;10.00;52.40
21495;DHT22;10909;53.590;10.054;2023-02-28T19:53:42;10.00;52.50
21495;DHT22;10909;53.590;10.054;2023-02-28T19:56:08;9.90;52.60
21495;DHT22;10909;53.590;10.054;2023-02-28T19:58:37;9.90;52.60
21495;DHT22;10909;53.590;10.054;2023-02-28T20:01:09;9.90;52.70